Jean Philippe Monclin

Jean Philippe Monclin

Statistiques 2026

  • Courses courues : 73
  • Nb de victoires : 16
  • Nb de places : 33
  • Écart gagnant : 2
  • Réussite à la gagne : 22%
  • Réussite à la place : 45%
Musique : 0a 4a 1a 6a Da 3a Da 3a 1a 1a 3a 5a 2a 2a 0a Da 0a 2a
DateRangCatégorieAlloc.Dist.HippodromeChevalRed. KmSpé.
12/11/21 3 Trot 13 000€ 2 225m Laval Joker de Janeiro 1'17"0 Attelé
20/11/21 8 Trot 27 000€ 2 875m Laval Cadence Del Fretta 1'15"5 Attelé
20/11/21 D Trot 34 000€ 2 875m Laval Hope On Victory Attelé
20/11/21 3 Trot 32 000€ 2 850m Laval Ironie du Guelier 1'16"3 Attelé
16/02/22 D Trot 26 000€ 2 850m Laval Forever's Fella Attelé
16/02/22 1 Trot 14 000€ 2 225m Laval Jessica 1'16"7 Attelé
19/02/22 4 Trot 26 000€ 2 850m Laval Girolata Quick 1'15"8 Attelé
19/02/22 3 Trot 33 000€ 2 850m Laval Mily 1'15"1 Attelé
19/02/22 D Trot 20 000€ 2 225m Laval Inno Mario Attelé
19/02/22 5 Trot 14 000€ 2 225m Laval Just d'heripre 1'17"6 Attelé
15/03/22 6 Trot 53 000€ 2 850m Laval Bolero Gar 1'13"3 Attelé lire

N'a pu que figurer au sein du peloton.

15/03/22 4 Trot 18 000€ 2 850m Laval Janga Fligny 1'19"2 Attelé
15/03/22 8 Trot 29 000€ 2 850m Laval Fee de Lunojo 1'14"2 Attelé lire

Après avoir figuré, n'a pas été capable de changer de rythme pour finir.

15/03/22 5 Trot 23 000€ 2 850m Laval Himoko du Goutier 1'15"4 Attelé
02/04/22 9 Trot 33 000€ 2 850m Laval Garibaldi 1'16"3 Attelé
02/04/22 6 Trot 20 000€ 2 850m Laval Imprudent 1'16"4 Attelé
06/05/22 D Trot 20 000€ 2 850m Laval Jolia Josselyn Attelé
06/05/22 6 Trot 20 000€ 2 850m Laval Johnny Quick 1'18"3 Attelé
06/05/22 D Trot 20 000€ 2 850m Laval Inno Mario Attelé
06/05/22 4 Trot 23 000€ 2 850m Laval Histoire de Lierre 1'15"5 Attelé
06/05/22 0 Trot 26 000€ 2 850m Laval Fragonard Attelé
06/05/22 D Trot 33 000€ 2 850m Laval Gaspar d'Angis Attelé
27/05/22 D Trot 20 000€ 2 850m Laval Jolia Josselyn Attelé
27/05/22 1 Trot 20 000€ 2 850m Laval Ibera 1'16"2 Attelé
27/05/22 D Trot 20 000€ 2 850m Laval Ivoire d'Authise Attelé
27/05/22 D Trot 23 000€ 2 850m Laval Histoire de Lierre Attelé
30/06/22 7 Trot 20 000€ 2 850m Laval Joyce Mess 1'19"2 Attelé
30/06/22 3 Trot 20 000€ 2 850m Laval Jorlic Tejy 1'17"4 Attelé
30/06/22 9 Trot 23 000€ 2 850m Laval Indice de Bruyere 1'15"6 Attelé
30/06/22 0 Trot 26 000€ 2 850m Laval Havane de Pail Attelé
30/06/22 3 Trot 30 000€ 2 850m Laval Geisha Speed 1'14"4 Attelé
18/09/18 0 Trot 25 000€ 2 875m Laval Business Class Attelé
18/09/18 2 Trot 20 000€ 2 875m Laval Cyclope d'Ostal 1'15"7 Attelé
18/09/18 2 Trot 19 000€ 2 875m Laval Fripon des Sables 1'17"5 Attelé
28/09/18 5 Trot 25 000€ 2 875m Laval Romi Mms 1'15"1 Attelé
28/09/18 D Trot 20 000€ 2 225m Laval Danse Avec Moi Attelé
28/09/18 3 Trot 12 000€ 2 875m Laval Filou du Caieu 1'17"7 Attelé
28/09/18 1 Trot 10 000€ 2 225m Laval Giant Cash 1'17"7 Attelé
03/10/18 3 Trot 32 000€ 2 875m Laval Buxus Calendes 1'14"4 Attelé lire

Rapidement bien placé, a très bien tenu sa partie jusqu'au bout.

03/10/18 D Trot 20 000€ 2 875m Laval Flipper Quick Attelé lire

A vite pris le galop.

03/10/18 8 Trot 20 000€ 2 875m Laval Do It Cherie 1'16"1 Attelé lire

Après avoir bien figuré, a nettement abdiqué dans la phase finale.

03/10/18 4 Trot 23 000€ 2 875m Laval Chistera 1'13"9 Attelé lire

A figuré au sein du peloton, avant de donner un bon coup de reins pour finir.

06/10/18 6 Trot 25 000€ 2 875m Laval Apollo de Souvigne 1'14"5 Attelé
06/10/18 D Trot 20 000€ 2 875m Laval Cyclope d'Ostal Attelé
06/10/18 D Trot 20 000€ 2 875m Laval Derby Speed Attelé
01/11/18 8 Trot 17 000€ 2 875m Laval Emilia Star 1'17"9 Attelé
01/11/18 8 Trot 30 000€ 2 900m Laval For You Madrik 1'16"4 Attelé
09/11/18 D Trot 19 000€ 2 225m Laval Flipper Quick Attelé
09/11/18 1 Trot 14 000€ 2 225m Laval Good Mec d'heripre 1'17"9 Attelé
17/11/18 D Trot 25 000€ 2 875m Laval Crack Atout Attelé